Terminal Aerodrome Forecast
Issued by NWS Cleveland, OH

Home | Current Version | Previous Version | Graphics & Text | Print | Product List | Glossary On
Versions: 1 2 3 4 5 6 7 8 9 10 11 12 13 14
000
FTUS41 KCLE 201400 AAA
TAFMFD
TAF AMD
KMFD 201439Z 2015/2112 34010KT P6SM OVC025
     FM201700 36007KT P6SM SCT025 OVC250
     FM202100 35007KT P6SM OVC100
     FM210600 02004KT P6SM -SHRA OVC050
     FM210800 VRB03KT P6SM OVC050=

USA.gov is the U.S. government's official web portal to all federal, state and local government web resources and services.